Time;durP1;ratioP1;P1;durP2;ratioP2;P2;SDS_P1;SDS_P2;PMS_P1;PMS_P2;Temp;Humidity;BMP_temperature;BMP_pressure;BME280_temperature;BME280_humidity;BME280_pressure;Samples;Min_cycle;Max_cycle;Signal;HPM_P1;HPM_P2
2022/05/10 00:01:02;;;;;;;13.68;6.32;;;;;;;23.20;39.75;101788.16;5036422;28;20071;-65
2022/05/10 00:03:32;;;;;;;11.15;5.53;;;;;;;23.17;39.81;101788.56;5018561;28;20021;-64
2022/05/10 00:05:57;;;;;;;10.98;5.75;;;;;;;23.14;40.39;101783.47;5018491;28;20400;-65
2022/05/10 00:08:23;;;;;;;11.85;6.50;;;;;;;23.11;40.65;101784.69;5036134;28;20128;-65
2022/05/10 00:10:48;;;;;;;9.98;5.50;;;;;;;23.08;40.78;101778.75;5036164;28;20080;-65
2022/05/10 00:13:14;;;;;;;8.43;5.93;;;;;;;23.05;40.33;101777.25;5036204;28;20030;-66
2022/05/10 00:15:41;;;;;;;9.27;5.35;;;;;;;23.01;40.32;101766.84;5036162;28;20417;-65
2022/05/10 00:18:08;;;;;;;8.70;5.95;;;;;;;22.98;40.77;101772.69;5018540;28;20072;-65
2022/05/10 00:20:34;;;;;;;8.70;5.82;;;;;;;22.95;40.17;101775.78;5018358;28;20075;-65
2022/05/10 00:22:59;;;;;;;10.88;6.07;;;;;;;22.91;40.83;101771.75;5036070;28;20072;-64
2022/05/10 00:25:28;;;;;;;13.52;6.32;;;;;;;22.88;40.70;101772.13;5035958;28;20033;-65
2022/05/10 00:27:54;;;;;;;18.55;6.57;;;;;;;22.86;41.08;101775.06;5036015;28;20112;-65
2022/05/10 00:30:19;;;;;;;12.68;6.47;;;;;;;22.86;40.90;101774.19;5036144;28;20108;-65
2022/05/10 00:32:45;;;;;;;12.65;6.72;;;;;;;22.83;39.94;101761.75;5035800;28;20017;-66
2022/05/10 00:35:25;;;;;;;14.25;6.18;;;;;;;22.80;40.32;101769.47;5018399;28;20030;-65
2022/05/10 00:37:52;;;;;;;10.25;7.28;;;;;;;22.75;41.47;101761.00;5017669;28;20108;-65
2022/05/10 00:40:21;;;;;;;11.73;6.28;;;;;;;22.71;40.77;101763.25;5018165;28;20018;-65
2022/05/10 00:42:55;;;;;;;10.90;6.63;;;;;;;22.68;40.99;101762.75;5035397;28;20022;-65
2022/05/10 00:45:29;;;;;;;10.52;6.00;;;;;;;22.66;41.60;101767.56;5001327;28;20029;-65
2022/05/10 00:48:16;;;;;;;11.75;6.05;;;;;;;22.62;40.70;101767.91;5017924;28;20395;-66
2022/05/10 00:50:49;;;;;;;11.40;6.60;;;;;;;22.59;41.79;101772.88;5017634;28;20529;-66
2022/05/10 00:53:20;;;;;;;10.18;7.00;;;;;;;22.55;41.70;101766.09;5011025;28;20042;-64
2022/05/10 00:55:55;;;;;;;13.05;6.30;;;;;;;22.50;41.81;101763.91;4994824;28;20030;-65
2022/05/10 00:58:25;;;;;;;14.73;6.88;;;;;;;22.49;41.02;101764.09;4995303;28;20464;-65
2022/05/10 01:00:53;;;;;;;9.98;7.03;;;;;;;22.47;41.29;101763.44;4995689;28;20022;-65
2022/05/10 01:03:26;;;;;;;15.85;7.38;;;;;;;22.42;41.09;101757.66;4996052;28;20050;-65
2022/05/10 01:05:57;;;;;;;14.13;6.82;;;;;;;22.36;41.46;101755.69;4994603;28;20117;-65
2022/05/10 01:08:58;;;;;;;7.55;5.93;;;;;;;22.32;41.78;101754.34;4995762;28;20030;-65
2022/05/10 01:11:38;;;;;;;13.50;7.05;;;;;;;22.27;41.63;101745.84;4914097;28;20049;-65
2022/05/10 01:14:19;;;;;;;11.00;6.75;;;;;;;22.24;41.80;101747.06;4994472;28;20498;-65
2022/05/10 01:16:44;;;;;;;11.75;6.63;;;;;;;22.20;41.81;101750.31;4996036;28;20033;-65
2022/05/10 01:19:10;;;;;;;10.23;6.55;;;;;;;22.15;41.11;101745.44;4995763;28;20022;-65
2022/05/10 01:21:48;;;;;;;10.68;7.00;;;;;;;22.13;42.14;101744.78;4995596;28;20384;-65
2022/05/10 01:24:17;;;;;;;11.80;7.05;;;;;;;22.10;41.96;101744.28;4995652;28;20077;-66
2022/05/10 01:26:48;;;;;;;9.77;6.55;;;;;;;22.07;41.75;101740.03;4994127;28;20046;-65
2022/05/10 01:29:19;;;;;;;12.05;6.80;;;;;;;22.05;41.78;101736.66;4995395;28;20026;-65
2022/05/10 01:33:29;;;;;;;11.50;7.30;;;;;;;22.03;42.17;101742.25;4995249;28;20065;-65
2022/05/10 01:34:37;;;;;;;16.10;7.82;;;;;;;22.02;42.06;101739.72;4994210;28;20054;-65
2022/05/10 01:37:05;;;;;;;12.20;7.53;;;;;;;22.00;41.46;101739.03;4995133;28;20503;-65
2022/05/10 01:39:34;;;;;;;12.77;7.70;;;;;;;22.01;41.79;101738.03;4994042;28;20034;-65
2022/05/10 01:42:08;;;;;;;10.20;6.75;;;;;;;22.03;41.92;101744.13;4994078;28;20098;-66
2022/05/10 01:44:38;;;;;;;10.45;7.00;;;;;;;22.07;41.46;101734.56;4993893;28;20022;-65
2022/05/10 01:47:13;;;;;;;11.27;7.25;;;;;;;22.12;42.27;101737.59;4994184;28;20034;-69
2022/05/10 01:49:45;;;;;;;16.75;8.07;;;;;;;22.17;41.90;101734.31;4994691;28;20045;-65
2022/05/10 01:52:25;;;;;;;16.23;7.90;;;;;;;22.20;42.26;101743.00;5004335;28;20045;-65
2022/05/10 01:55:02;;;;;;;12.77;7.53;;;;;;;22.21;42.22;101733.78;5013314;28;20060;-65
2022/05/10 01:57:29;;;;;;;13.52;7.65;;;;;;;22.23;42.05;101734.44;5014730;28;20018;-65
2022/05/10 02:00:08;;;;;;;13.82;7.78;;;;;;;22.23;41.87;101734.44;5013390;28;20030;-65
2022/05/10 02:02:36;;;;;;;11.48;7.45;;;;;;;22.19;41.87;101729.53;5014651;28;20399;-66
2022/05/10 02:05:04;;;;;;;14.70;7.10;;;;;;;22.16;42.00;101722.56;5013201;28;20026;-66
2022/05/10 02:07:30;;;;;;;13.07;7.65;;;;;;;22.14;42.26;101724.63;5013245;28;20037;-65
2022/05/10 02:10:00;;;;;;;16.77;8.00;;;;;;;22.11;42.15;101724.97;5014356;28;20022;-65
2022/05/10 02:12:31;;;;;;;15.00;8.50;;;;;;;22.08;41.55;101725.38;5014537;28;20022;-65
2022/05/10 02:15:02;;;;;;;12.30;7.60;;;;;;;22.05;42.78;101723.00;5013044;28;20026;-65
2022/05/10 02:17:56;;;;;;;14.95;6.90;;;;;;;22.02;42.56;101723.38;5014427;28;20026;-64
2022/05/10 02:20:28;;;;;;;10.43;6.72;;;;;;;21.96;41.80;101711.28;5014347;28;20033;-64
2022/05/10 02:23:13;;;;;;;14.73;7.30;;;;;;;21.95;42.42;101719.66;5012692;28;20018;-66
2022/05/10 02:25:42;;;;;;;13.77;7.88;;;;;;;21.93;42.78;101719.84;5012937;28;20042;-65
2022/05/10 02:28:14;;;;;;;9.23;6.40;;;;;;;21.90;42.77;101713.88;5014124;28;20483;-66
2022/05/10 02:30:39;;;;;;;13.77;7.22;;;;;;;21.87;42.15;101708.78;5012960;28;20025;-65
2022/05/10 02:33:08;;;;;;;11.35;7.00;;;;;;;21.84;42.28;101709.97;5014049;28;20032;-65
2022/05/10 02:35:59;;;;;;;18.80;8.20;;;;;;;21.78;42.56;101702.50;5012678;28;20026;-65
2022/05/10 02:38:33;;;;;;;14.38;6.93;;;;;;;21.74;43.05;101703.91;5014016;28;20368;-65
2022/05/10 02:40:59;;;;;;;10.75;6.32;;;;;;;21.71;42.87;101695.22;5013921;28;20486;-65
2022/05/10 02:43:31;;;;;;;13.60;7.20;;;;;;;21.67;42.17;101693.88;5012755;28;20025;-66
2022/05/10 02:45:57;;;;;;;10.23;6.97;;;;;;;21.62;42.60;101691.72;5012973;28;20026;-66
2022/05/10 02:48:25;;;;;;;11.20;7.53;;;;;;;21.58;42.30;101686.81;5013988;28;20109;-66
2022/05/10 02:50:51;;;;;;;13.88;7.28;;;;;;;21.54;42.77;101693.63;5012506;28;20125;-65
2022/05/10 02:53:16;;;;;;;11.57;7.35;;;;;;;21.50;42.17;101689.59;5031263;28;20076;-65
2022/05/10 02:55:48;;;;;;;13.63;7.15;;;;;;;21.45;42.23;101680.06;5033576;28;20040;-64
2022/05/10 02:58:21;;;;;;;13.80;7.70;;;;;;;21.43;43.04;101684.84;5016002;28;20025;-66
2022/05/10 03:00:48;;;;;;;11.77;7.45;;;;;;;21.41;42.60;101686.06;5033392;28;20032;-65
2022/05/10 03:03:15;;;;;;;10.63;7.68;;;;;;;21.39;43.24;101679.91;5037500;28;20029;-65
2022/05/10 03:05:41;;;;;;;17.55;7.13;;;;;;;21.36;42.67;101681.13;5037701;28;20037;-65
2022/05/10 03:08:06;;;;;;;12.63;7.22;;;;;;;21.35;43.06;101679.44;5037642;28;20056;-65
2022/05/10 03:10:32;;;;;;;12.80;7.07;;;;;;;21.34;43.35;101675.00;5037608;28;20385;-65
2022/05/10 03:12:58;;;;;;;12.48;7.47;;;;;;;21.32;42.80;101668.88;5037762;28;20071;-65
2022/05/10 03:15:24;;;;;;;11.93;7.07;;;;;;;21.33;42.77;101669.72;5037257;28;20037;-66
2022/05/10 03:17:49;;;;;;;14.95;7.32;;;;;;;21.30;42.34;101668.19;5037472;28;20065;-66
2022/05/10 03:20:14;;;;;;;13.00;7.65;;;;;;;21.30;42.87;101668.19;5037102;28;20025;-65
2022/05/10 03:22:40;;;;;;;14.13;7.60;;;;;;;21.29;43.34;101663.78;5037208;28;20032;-66
2022/05/10 03:25:05;;;;;;;11.82;7.43;;;;;;;21.25;42.83;101662.44;5037018;28;20030;-65
2022/05/10 03:27:30;;;;;;;15.10;7.60;;;;;;;21.22;43.01;101662.78;5037098;28;20029;-66
2022/05/10 03:29:56;;;;;;;10.45;7.45;;;;;;;21.20;43.30;101653.09;5036975;28;20132;-66
2022/05/10 03:32:21;;;;;;;12.65;8.27;;;;;;;21.20;42.73;101661.28;5036842;28;20017;-66
2022/05/10 03:34:57;;;;;;;8.90;6.93;;;;;;;21.19;43.20;101662.31;5019184;28;20091;-65
2022/05/10 03:37:24;;;;;;;15.48;8.02;;;;;;;21.18;42.88;101656.00;5036994;28;20029;-65
2022/05/10 03:39:49;;;;;;;16.20;8.00;;;;;;;21.19;43.09;101657.69;5036929;28;20075;-65
2022/05/10 03:42:15;;;;;;;14.38;7.72;;;;;;;21.19;42.84;101663.13;5036528;28;20414;-65
2022/05/10 03:44:40;;;;;;;14.55;7.65;;;;;;;21.18;42.92;101660.59;5019109;28;20550;-65
2022/05/10 03:47:07;;;;;;;14.93;8.43;;;;;;;21.14;43.47;101649.22;5036657;28;20032;-65
2022/05/10 03:49:33;;;;;;;12.27;8.50;;;;;;;21.09;43.36;101646.16;5036759;28;20033;-65
2022/05/10 03:51:58;;;;;;;13.40;8.55;;;;;;;21.06;43.15;101651.09;5036333;28;20121;-65
2022/05/10 03:54:24;;;;;;;11.93;7.10;;;;;;;21.03;43.36;101646.84;5036774;28;20058;-65
2022/05/10 03:56:50;;;;;;;13.57;6.80;;;;;;;20.98;43.20;101646.53;5036883;28;20025;-65
2022/05/10 03:59:17;;;;;;;14.13;7.85;;;;;;;20.96;43.76;101645.88;5036461;28;20068;-65
2022/05/10 04:01:43;;;;;;;11.25;7.18;;;;;;;20.95;43.83;101646.88;5018793;28;20029;-66
2022/05/10 04:04:08;;;;;;;14.38;6.88;;;;;;;20.95;43.74;101646.03;5036528;28;20021;-64
2022/05/10 04:06:33;;;;;;;11.88;7.68;;;;;;;20.94;43.42;101645.16;5036320;28;20065;-65
2022/05/10 04:08:59;;;;;;;21.38;8.05;;;;;;;20.94;43.66;101639.72;5036370;28;20383;-65
2022/05/10 04:11:24;;;;;;;12.85;7.43;;;;;;;20.95;43.24;101643.31;5036516;28;20398;-65
2022/05/10 04:13:49;;;;;;;8.77;6.95;;;;;;;20.96;43.31;101647.75;5018451;28;20033;-65
2022/05/10 04:16:16;;;;;;;10.93;7.13;;;;;;;20.97;43.63;101642.09;5036472;28;20479;-65
2022/05/10 04:18:42;;;;;;;11.02;7.53;;;;;;;20.99;43.45;101634.63;5036513;28;20045;-66
2022/05/10 04:21:08;;;;;;;14.00;6.80;;;;;;;21.01;43.62;101639.88;5036020;28;20387;-66
2022/05/10 04:23:34;;;;;;;10.18;6.10;;;;;;;21.00;43.86;101635.44;5036185;28;20025;-65
2022/05/10 04:26:08;;;;;;;12.18;6.68;;;;;;;20.97;44.09;101628.47;5036245;28;20056;-66
2022/05/10 04:28:35;;;;;;;9.32;6.45;;;;;;;20.98;43.66;101634.78;5035796;28;20505;-66
2022/05/10 04:31:00;;;;;;;9.98;6.53;;;;;;;20.99;43.58;101634.63;5035846;28;20022;-64
2022/05/10 04:33:26;;;;;;;11.57;7.50;;;;;;;21.00;43.51;101636.28;5017925;28;20029;-66
2022/05/10 04:35:51;;;;;;;11.90;8.10;;;;;;;21.01;43.88;101637.16;5035816;28;20031;-66
2022/05/10 04:38:17;;;;;;;10.93;7.65;;;;;;;21.01;43.73;101634.44;5035842;28;20025;-66
2022/05/10 04:43:27;;;;;;;10.85;7.30;;;;;;;21.06;43.59;101635.59;5020516;28;20028;-64
2022/05/10 04:45:52;;;;;;;13.88;7.85;;;;;;;21.09;43.55;101637.13;5035657;28;20081;-66
2022/05/10 04:48:18;;;;;;;11.82;6.97;;;;;;;21.13;43.23;101636.63;5035479;28;20025;-66
2022/05/10 04:50:43;;;;;;;12.10;8.02;;;;;;;21.17;43.66;101643.41;5035539;28;20021;-65
2022/05/10 04:53:09;;;;;;;12.25;7.75;;;;;;;21.20;43.50;101637.59;5035256;28;20470;-66
2022/05/10 04:55:34;;;;;;;16.38;8.05;;;;;;;21.25;43.72;101646.09;5035784;28;20021;-66
2022/05/10 04:57:59;;;;;;;14.18;7.25;;;;;;;21.33;43.88;101637.00;5035595;28;20029;-65
2022/05/10 05:00:26;;;;;;;14.15;8.07;;;;;;;21.39;44.09;101637.13;5035524;28;20049;-66
2022/05/10 05:02:51;;;;;;;14.57;7.45;;;;;;;21.47;43.89;101637.09;5035288;28;20079;-66
2022/05/10 05:05:17;;;;;;;14.38;6.82;;;;;;;21.60;43.68;101646.56;5035702;28;20029;-65
2022/05/10 05:07:43;;;;;;;12.05;7.47;;;;;;;21.71;43.47;101643.41;5035560;28;20037;-65
2022/05/10 05:10:09;;;;;;;10.55;6.93;;;;;;;21.82;43.62;101641.13;5035438;28;20029;-66
2022/05/10 05:12:35;;;;;;;12.38;7.55;;;;;;;21.96;43.78;101639.50;5035378;28;20531;-65
2022/05/10 05:15:03;;;;;;;11.82;7.75;;;;;;;22.09;44.04;101638.84;5035476;28;20068;-65
2022/05/10 05:17:28;;;;;;;11.02;7.40;;;;;;;22.23;44.17;101643.50;5035412;28;20079;-65
2022/05/10 05:19:54;;;;;;;13.13;7.00;;;;;;;22.38;44.07;101649.84;5035075;28;20033;-66
2022/05/10 05:22:19;;;;;;;14.57;7.22;;;;;;;22.52;43.65;101649.88;5035022;28;20025;-66
2022/05/10 05:24:44;;;;;;;11.85;7.03;;;;;;;22.68;43.59;101650.75;5034105;28;20021;-66
2022/05/10 05:27:10;;;;;;;9.32;7.35;;;;;;;22.81;43.91;101640.03;5035321;28;20034;-66
2022/05/10 05:29:35;;;;;;;12.50;7.38;;;;;;;22.94;43.56;101640.22;5034807;28;20586;-66
2022/05/10 05:32:05;;;;;;;12.00;8.23;;;;;;;23.10;43.70;101645.44;5017005;28;20555;-66
2022/05/10 05:34:30;;;;;;;11.88;6.78;;;;;;;23.29;43.06;101641.25;5017095;28;20025;-65
2022/05/10 05:39:40;;;;;;;11.75;7.35;;;;;;;23.70;42.47;101632.28;5035044;28;20079;-65
2022/05/10 05:42:05;;;;;;;10.43;6.22;;;;;;;23.88;43.01;101634.56;5034657;28;20479;-64
2022/05/10 05:44:31;;;;;;;9.02;6.22;;;;;;;24.06;43.04;101631.38;5035414;28;20021;-65
2022/05/10 05:46:57;;;;;;;9.50;6.05;;;;;;;24.22;42.27;101631.13;5035058;28;20131;-65
2022/05/10 05:49:25;;;;;;;11.02;6.03;;;;;;;24.39;41.71;101628.91;5034753;28;20108;-65
2022/05/10 05:51:55;;;;;;;13.95;5.70;;;;;;;24.58;41.70;101631.78;5017111;28;20013;-65
2022/05/10 05:54:20;;;;;;;9.85;5.70;;;;;;;24.80;41.91;101625.22;5034474;28;20100;-65
2022/05/10 05:56:46;;;;;;;9.07;5.35;;;;;;;25.07;41.70;101628.09;5034795;28;20049;-65
2022/05/10 05:59:11;;;;;;;9.95;5.80;;;;;;;25.30;41.21;101625.84;5016910;28;20029;-65
2022/05/10 06:01:37;;;;;;;9.75;6.10;;;;;;;25.55;40.92;101627.00;5034579;28;20039;-65
2022/05/10 06:04:02;;;;;;;12.75;6.10;;;;;;;25.83;41.06;101627.69;5034131;28;20036;-65
2022/05/10 06:06:28;;;;;;;9.07;5.28;;;;;;;26.07;40.36;101622.63;5033704;28;20105;-64
2022/05/10 06:08:53;;;;;;;7.18;5.72;;;;;;;26.29;39.97;101622.25;5033929;28;20030;-65
2022/05/10 06:11:19;;;;;;;9.80;6.50;;;;;;;26.48;40.19;101623.25;5034358;28;20018;-65
2022/05/10 06:13:44;;;;;;;10.02;5.60;;;;;;;26.60;40.00;101624.31;5033872;28;20550;-65
2022/05/10 06:16:10;;;;;;;15.25;6.35;;;;;;;26.66;40.11;101623.47;5016438;28;20059;-65
2022/05/10 06:18:35;;;;;;;7.32;4.90;;;;;;;26.71;39.88;101623.66;5034063;28;20475;-65
2022/05/10 06:21:00;;;;;;;9.85;5.20;;;;;;;26.77;40.14;101624.69;5033877;28;20087;-65
2022/05/10 06:23:26;;;;;;;15.85;5.63;;;;;;;26.82;39.98;101623.00;5033647;28;20025;-65
2022/05/10 06:25:51;;;;;;;8.15;5.85;;;;;;;26.87;40.13;101614.09;5033872;28;20033;-65
2022/05/10 06:28:17;;;;;;;10.77;4.65;;;;;;;26.94;39.71;101613.00;5033759;28;20442;-65
2022/05/10 06:30:43;;;;;;;10.70;6.00;;;;;;;26.97;39.60;101619.97;5033660;28;20108;-66
2022/05/10 06:33:08;;;;;;;6.68;4.30;;;;;;;27.00;39.38;101614.88;5033800;28;20398;-65
2022/05/10 06:35:34;;;;;;;6.05;4.50;;;;;;;27.03;39.27;101617.22;5033414;28;20025;-65
2022/05/10 06:38:19;;;;;;;9.32;4.22;;;;;;;27.07;39.83;101612.97;5033532;28;20029;-66
2022/05/10 06:40:46;;;;;;;8.35;4.22;;;;;;;27.11;39.50;101613.34;5033791;28;20021;-65
2022/05/10 06:43:12;;;;;;;10.38;4.03;;;;;;;27.17;39.33;101609.72;5033586;28;20406;-65
2022/05/10 06:45:39;;;;;;;6.22;4.00;;;;;;;27.20;39.39;101603.78;5033258;28;20034;-65
2022/05/10 06:48:05;;;;;;;8.30;3.92;;;;;;;27.26;38.56;101604.81;5033230;28;20459;-65
2022/05/10 06:50:31;;;;;;;4.90;4.10;;;;;;;27.30;38.83;101597.84;5033612;28;20063;-65
2022/05/10 06:52:58;;;;;;;4.75;3.33;;;;;;;27.35;38.38;101592.50;5033238;28;20041;-65
2022/05/10 06:55:24;;;;;;;5.05;3.65;;;;;;;27.37;38.13;101593.13;5033291;28;20025;-65
2022/05/10 06:57:50;;;;;;;7.43;3.60;;;;;;;27.41;37.81;101588.91;5033249;28;20379;-65
2022/05/10 07:00:17;;;;;;;8.30;3.50;;;;;;;27.50;38.02;101585.66;5033130;28;20048;-65
2022/05/10 07:02:43;;;;;;;3.40;3.08;;;;;;;27.68;37.67;101582.16;5033259;28;20379;-65
2022/05/10 07:05:10;;;;;;;7.30;3.65;;;;;;;28.15;37.76;101581.56;5033122;28;20021;-65
2022/05/10 07:07:36;;;;;;;7.50;3.30;;;;;;;28.47;37.42;101574.06;5033163;28;20113;-65
2022/05/10 07:10:04;;;;;;;5.53;2.90;;;;;;;28.95;36.86;101576.88;5033292;28;20057;-65
2022/05/10 07:12:29;;;;;;;4.43;3.15;;;;;;;29.25;35.52;101580.56;5033524;28;20450;-65
2022/05/10 07:14:54;;;;;;;6.07;3.00;;;;;;;29.75;35.42;101566.41;5033370;28;20064;-65
2022/05/10 07:17:20;;;;;;;4.05;3.58;;;;;;;30.13;35.43;101563.22;5033107;28;20025;-65
2022/05/10 07:19:45;;;;;;;3.88;2.95;;;;;;;30.49;33.96;101574.91;5032874;28;20082;-64
2022/05/10 07:22:11;;;;;;;6.32;3.17;;;;;;;30.54;34.55;101569.47;5032835;28;20033;-65
2022/05/10 07:24:36;;;;;;;4.80;2.85;;;;;;;30.52;34.50;101568.06;5033066;28;20432;-65
2022/05/10 07:27:01;;;;;;;4.18;2.55;;;;;;;30.53;34.34;101575.28;5033299;28;20029;-66
2022/05/10 07:29:27;;;;;;;5.53;3.45;;;;;;;30.41;34.01;101566.97;5033118;28;20053;-66
2022/05/10 07:31:54;;;;;;;8.85;2.55;;;;;;;30.25;34.16;101555.78;5033000;28;20506;-66
2022/05/10 07:34:19;;;;;;;5.03;2.47;;;;;;;30.10;34.65;101559.03;5033176;28;20546;-65
2022/05/10 07:36:45;;;;;;;7.13;3.17;;;;;;;30.02;33.81;101556.63;5032876;28;20021;-64
2022/05/10 07:39:14;;;;;;;3.85;2.58;;;;;;;29.97;33.68;101550.97;5033150;28;20026;-65
2022/05/10 07:41:40;;;;;;;5.15;2.28;;;;;;;29.93;34.52;101563.56;5032713;28;20482;-65
2022/05/10 07:44:06;;;;;;;6.40;2.75;;;;;;;29.92;34.49;101554.47;5032918;28;20112;-64
2022/05/10 07:46:32;;;;;;;3.70;2.25;;;;;;;29.94;34.24;101554.22;5015270;28;20597;-65
2022/05/10 07:48:58;;;;;;;3.15;2.50;;;;;;;29.93;33.79;101558.03;5036105;28;20033;-65
2022/05/10 07:51:23;;;;;;;3.88;2.78;;;;;;;29.85;33.93;101561.16;5036654;28;20032;-65
2022/05/10 07:53:49;;;;;;;6.72;3.13;;;;;;;29.78;33.89;101566.78;5036283;28;20056;-65
2022/05/10 07:56:15;;;;;;;3.85;3.10;;;;;;;29.71;33.27;101562.44;5036355;28;20463;-65
2022/05/10 07:58:40;;;;;;;4.97;2.63;;;;;;;29.62;33.42;101561.13;5036110;28;20033;-65
2022/05/10 08:01:07;;;;;;;3.00;2.63;;;;;;;29.57;34.20;101567.31;5036205;28;20075;-65
2022/05/10 08:03:33;;;;;;;8.23;2.80;;;;;;;29.54;34.12;101564.22;5036553;28;20072;-65
2022/05/10 08:05:59;;;;;;;5.07;2.80;;;;;;;29.51;34.19;101559.16;5036340;28;20493;-65
2022/05/10 08:08:26;;;;;;;5.22;2.97;;;;;;;29.48;34.16;101559.63;5036865;28;20029;-65
2022/05/10 08:10:55;;;;;;;5.53;3.08;;;;;;;29.47;33.45;101564.31;5036406;28;20495;-65
2022/05/10 08:13:26;;;;;;;5.18;3.10;;;;;;;29.48;33.76;101560.47;5036439;28;20014;-65
2022/05/10 08:15:52;;;;;;;8.10;3.50;;;;;;;29.48;33.93;101554.97;5036610;28;20108;-65
2022/05/10 08:18:19;;;;;;;5.93;2.90;;;;;;;29.51;33.11;101564.69;5036194;28;20026;-65
2022/05/10 08:20:45;;;;;;;5.15;2.70;;;;;;;29.57;33.21;101552.66;5036242;28;20069;-65
2022/05/10 08:23:15;;;;;;;4.32;2.67;;;;;;;29.65;33.42;101557.88;5035917;28;20064;-65
2022/05/10 08:25:41;;;;;;;5.20;2.53;;;;;;;29.72;33.79;101561.38;5036103;28;20055;-64
2022/05/10 08:28:13;;;;;;;8.60;3.22;;;;;;;29.75;33.96;101564.50;5035775;28;20033;-65
2022/05/10 08:30:42;;;;;;;2.73;2.37;;;;;;;29.82;33.56;101562.50;5035847;28;20036;-65
2022/05/10 08:33:10;;;;;;;6.43;2.58;;;;;;;29.92;33.14;101556.38;5035802;28;20040;-64
2022/05/10 08:35:36;;;;;;;4.30;2.80;;;;;;;30.00;32.92;101556.03;5035482;28;20029;-66
2022/05/10 08:38:01;;;;;;;8.82;2.53;;;;;;;30.09;32.72;101553.75;5035734;28;20033;-66
2022/05/10 08:40:32;;;;;;;3.22;2.28;;;;;;;30.23;33.08;101553.28;5035395;28;20382;-65
2022/05/10 08:43:06;;;;;;;4.05;2.72;;;;;;;30.37;32.74;101549.22;5017791;28;20466;-66
2022/05/10 08:45:40;;;;;;;8.77;2.65;;;;;;;30.49;32.84;101544.47;5035227;28;20028;-66
2022/05/10 08:48:05;;;;;;;3.45;2.35;;;;;;;30.56;32.72;101544.38;5035480;28;20387;-65
2022/05/10 08:50:31;;;;;;;11.90;3.25;;;;;;;30.61;33.02;101540.84;5035444;28;20021;-65
2022/05/10 08:52:56;;;;;;;4.90;2.35;;;;;;;30.63;32.66;101541.47;5034801;28;20065;-66
2022/05/10 08:55:26;;;;;;;3.47;2.28;;;;;;;30.62;32.52;101540.63;5035249;28;20033;-66
2022/05/10 08:58:06;;;;;;;5.72;2.58;;;;;;;30.66;32.44;101538.19;5017643;28;20513;-65
2022/05/10 09:00:55;;;;;;;3.25;2.45;;;;;;;30.68;32.92;101533.28;5016435;28;20450;-66
2022/05/10 09:03:23;;;;;;;8.23;2.72;;;;;;;30.70;32.76;101533.88;5017337;28;20164;-65
2022/05/10 09:05:49;;;;;;;4.30;2.58;;;;;;;30.76;32.49;101541.19;5034963;28;20032;-65
2022/05/10 09:08:22;;;;;;;4.68;2.60;;;;;;;30.78;32.46;101527.94;5034839;28;20025;-66
2022/05/10 09:10:58;;;;;;;5.63;2.70;;;;;;;30.81;31.76;101530.22;5017225;28;20029;-65
2022/05/10 09:13:24;;;;;;;2.70;2.25;;;;;;;30.80;32.63;101531.28;5017183;28;20455;-65
2022/05/10 09:15:54;;;;;;;3.42;2.35;;;;;;;30.84;32.08;101525.03;5034793;28;20081;-65
2022/05/10 09:18:42;;;;;;;2.72;1.90;;;;;;;30.86;32.33;101527.56;5034637;28;20024;-64
2022/05/10 09:21:20;;;;;;;5.40;2.45;;;;;;;30.88;32.09;101523.44;5034453;28;20028;-66
2022/05/10 09:24:42;;;;;;;3.83;2.22;;;;;;;30.96;32.27;101517.56;5034782;28;20029;-66
2022/05/10 09:27:10;;;;;;;5.28;2.92;;;;;;;30.97;31.93;101518.41;4954253;29;20038;-66
2022/05/10 09:29:42;;;;;;;6.10;2.88;;;;;;;30.95;32.56;101506.75;4938525;29;20666;-66
2022/05/10 09:35:26;;;;;;;3.65;2.10;;;;;;;30.89;32.22;101508.53;4954255;29;20042;-66
2022/05/10 09:37:56;;;;;;;5.60;2.47;;;;;;;30.87;32.58;101507.09;4937725;29;20456;-65
2022/05/10 09:40:25;;;;;;;4.25;2.30;;;;;;;30.89;32.38;101507.69;4938144;29;20463;-66
2022/05/10 09:42:52;;;;;;;3.05;2.22;;;;;;;30.90;31.88;101503.84;4953994;29;20031;-66
2022/05/10 09:45:24;;;;;;;3.50;2.03;;;;;;;30.94;32.18;101500.34;4954060;29;20043;-66
2022/05/10 09:47:58;;;;;;;7.70;4.07;;;;;;;31.02;31.75;101502.72;4954107;29;20038;-66
2022/05/10 09:50:33;;;;;;;9.23;2.25;;;;;;;31.10;31.49;101498.75;4953779;29;20509;-64
2022/05/10 09:53:17;;;;;;;5.43;2.63;;;;;;;31.22;31.53;101502.28;4953645;29;20062;-66
2022/05/10 09:55:54;;;;;;;2.88;2.30;;;;;;;31.34;31.29;101494.75;4953850;29;20070;-66
2022/05/10 09:58:24;;;;;;;6.68;2.47;;;;;;;31.48;31.02;101501.69;4986757;28;20045;-66
2022/05/10 10:00:53;;;;;;;5.03;2.42;;;;;;;31.63;31.21;101488.06;4994622;28;20046;-65
2022/05/10 10:03:26;;;;;;;3.03;2.53;;;;;;;31.94;30.98;101488.56;4994687;28;20365;-65
2022/05/10 10:05:54;;;;;;;7.22;2.15;;;;;;;32.01;31.04;101484.53;4994791;28;20411;-66
2022/05/10 10:08:36;;;;;;;5.22;2.33;;;;;;;32.17;30.38;101482.81;4994713;28;20048;-65
2022/05/10 10:11:02;;;;;;;;;;;;;;;32.39;30.55;101483.66;4994511;28;20027;-66
2022/05/10 10:13:37;;;;;;;5.53;2.43;;;;;;;32.51;29.85;101481.63;4994417;28;19919;-66
2022/05/10 10:16:19;;;;;;;7.85;1.63;;;;;;;32.62;29.53;101475.13;4993155;28;20255;-66
2022/05/10 10:18:49;;;;;;;3.35;2.42;;;;;;;32.62;30.16;101477.06;4994513;28;20404;-65
2022/05/10 10:21:19;;;;;;;4.25;1.92;;;;;;;32.64;29.45;101481.25;4994121;28;20030;-66
2022/05/10 10:23:54;;;;;;;2.88;2.35;;;;;;;32.82;29.22;101475.38;4993227;28;20361;-65
2022/05/10 10:26:39;;;;;;;5.03;2.00;;;;;;;33.14;29.14;101478.22;4994498;28;20061;-66
2022/05/10 10:29:13;;;;;;;2.53;2.22;;;;;;;33.34;29.74;101472.88;4992826;28;20369;-65
2022/05/10 10:31:44;;;;;;;4.22;2.17;;;;;;;33.34;29.79;101483.13;4993062;28;20053;-65
2022/05/10 10:34:27;;;;;;;2.97;1.85;;;;;;;33.46;29.06;101469.91;4993155;28;20080;-65
2022/05/10 10:36:56;;;;;;;2.53;2.15;;;;;;;33.68;28.31;101467.91;4994039;28;20026;-65
2022/05/10 10:39:45;;;;;;;6.53;2.75;;;;;;;34.00;28.61;101465.06;4992801;28;20048;-65
2022/05/10 10:42:28;;;;;;;5.88;2.20;;;;;;;34.63;28.08;101466.81;4994049;28;20034;-65
2022/05/10 10:44:57;;;;;;;4.93;1.80;;;;;;;34.94;27.25;101457.44;4994158;28;20022;-65
2022/05/10 10:47:46;;;;;;;4.35;2.20;;;;;;;34.85;27.20;101450.72;4993972;28;20022;-65
2022/05/10 10:50:20;;;;;;;2.70;1.50;;;;;;;34.80;27.54;101453.50;4992833;28;20603;-66
2022/05/10 10:52:45;;;;;;;4.25;2.00;;;;;;;34.88;26.98;101450.16;4995718;28;20109;-65
2022/05/10 10:55:11;;;;;;;2.72;1.88;;;;;;;34.94;26.95;101449.06;5033651;28;20065;-66
2022/05/10 10:57:57;;;;;;;2.47;1.77;;;;;;;35.27;27.01;101452.47;5033401;28;20025;-65
2022/05/10 11:00:37;;;;;;;2.83;1.95;;;;;;;35.95;25.84;101453.84;5033272;28;20021;-65
2022/05/10 11:03:18;;;;;;;9.10;2.35;;;;;;;36.68;25.23;101441.06;5016201;28;20471;-65
2022/05/10 11:05:52;;;;;;;2.15;1.95;;;;;;;37.33;24.87;101431.38;5033213;28;20021;-65
2022/05/10 11:08:37;;;;;;;4.07;2.05;;;;;;;37.21;25.17;101434.59;5033396;28;20104;-66
2022/05/10 11:11:05;;;;;;;4.53;2.25;;;;;;;37.60;24.92;101437.34;5033158;28;20080;-66
2022/05/10 11:13:52;;;;;;;3.63;1.98;;;;;;;37.81;24.13;101437.94;5033304;28;20091;-66
2022/05/10 11:16:20;;;;;;;3.95;2.00;;;;;;;38.41;23.41;101448.50;5033927;28;20108;-66
2022/05/10 11:19:10;;;;;;;3.33;2.00;;;;;;;38.63;23.44;101433.09;5033734;28;20033;-65
2022/05/10 11:21:47;;;;;;;2.97;2.25;;;;;;;38.52;24.08;101432.41;5033239;28;20542;-65
2022/05/10 11:24:38;;;;;;;3.70;2.05;;;;;;;37.95;23.76;101426.91;5037074;28;20029;-65
2022/05/10 11:27:32;;;;;;;2.78;1.92;;;;;;;37.99;23.43;101423.25;5019508;28;20040;-66
2022/05/10 11:30:03;;;;;;;3.38;1.85;;;;;;;38.72;23.81;101414.47;5036790;28;20025;-66
2022/05/10 11:32:29;;;;;;;4.80;2.22;;;;;;;38.86;23.51;101409.81;5036535;28;20108;-66
2022/05/10 11:35:00;;;;;;;2.92;1.90;;;;;;;39.27;22.82;101415.59;5037229;28;20068;-66
2022/05/10 11:37:40;;;;;;;5.53;2.15;;;;;;;39.52;22.93;101423.56;5019369;28;20436;-66
2022/05/10 11:40:39;;;;;;;2.28;1.95;;;;;;;39.60;21.72;101403.22;5037104;28;20029;-65
2022/05/10 11:43:36;;;;;;;3.35;1.77;;;;;;;40.21;22.47;101400.06;5036742;28;20040;-66